This is the latest recevied weather packets stored in our database for station/object KC1OEK-13. If no packets are shown the sender has not sent any weather packets the latest 1 day(s).
| Time | Temp. | Humidity | Pressure | Rain* | Wind** | Luminosity | Snow |
|---|---|---|---|---|---|---|---|
| 1777996194 | 23.89° C | 52% | 1011.2 hPa | 0 mm | 1.34 m/s, 267° | 728 W/m² | - |
| 1777995890 | 23.33° C | 52% | 1011.6 hPa | 0 mm | 1.34 m/s, 300° | 725 W/m² | - |
| 1777995586 | 24.44° C | 51% | 1011.5 hPa | 0 mm | 2.24 m/s, 172° | 719 W/m² | - |
| 1777995284 | 23.89° C | 51% | 1011.7 hPa | 0 mm | 2.24 m/s, 241° | 714 W/m² | - |
| 1777994980 | 22.78° C | 51% | 1011.5 hPa | 0 mm | 2.68 m/s, 198° | 708 W/m² | - |
| 1777994677 | 22.78° C | 52% | 1011.7 hPa | 0 mm | 1.79 m/s, 201° | 702 W/m² | - |
| 1777994377 | 22.78° C | 53% | 1011.7 hPa | 0 mm | 1.79 m/s, 195° | 696 W/m² | - |
| 1777994068 | 23.33° C | 52% | 1012 hPa | 0 mm | 3.13 m/s, 206° | 686 W/m² | - |
| 1777993766 | 22.78° C | 54% | 1012.3 hPa | 0 mm | 0 m/s | 676 W/m² | - |
| 1777993462 | 22.22° C | 54% | 1012.2 hPa | 0 mm | 0.89 m/s, 309° | 673 W/m² | - |
| 1777993162 | 21.67° C | 55% | 1012.3 hPa | 0 mm | 1.79 m/s, 338° | 666 W/m² | - |
| 1777992860 | 21.67° C | 56% | 1012 hPa | 0 mm | 1.79 m/s, 202° | 658 W/m² | - |
| 1777992558 | 21.11° C | 59% | 1012 hPa | 0 mm | 0.45 m/s, 348° | 650 W/m² | - |
| 1777992256 | 21.11° C | 57% | 1012.1 hPa | 0 mm | 2.24 m/s, 163° | 635 W/m² | - |
| 1777991953 | 21.11° C | 58% | 1012.2 hPa | 0 mm | 4.02 m/s, 20° | 612 W/m² | - |
| 1777991650 | 21.11° C | 58% | 1012.1 hPa | 0 mm | 2.24 m/s, 227° | 607 W/m² | - |
| 1777991347 | 21.11° C | 57% | 1012 hPa | 0 mm | 2.24 m/s, 280° | 609 W/m² | - |
| 1777991045 | 21.11° C | 56% | 1012 hPa | 0 mm | 2.68 m/s, 181° | 604 W/m² | - |
| 1777990741 | 21.11° C | 58% | 1012.2 hPa | 0 mm | 1.34 m/s, 216° | 585 W/m² | - |
| 1777990439 | 21.11° C | 57% | 1012.3 hPa | 0 mm | 1.34 m/s, 162° | 613 W/m² | - |
| 1777990135 | 20.56° C | 60% | 1012 hPa | 0 mm | 0.89 m/s, 253° | 640 W/m² | - |
| 1777989832 | 20° C | 62% | 1012 hPa | 0 mm | 0.45 m/s, 13° | 555 W/m² | - |
| 1777989529 | 20° C | 66% | 1012 hPa | 0 mm | 0.45 m/s, 238° | 545 W/m² | - |
| 1777989225 | 19.44° C | 67% | 1011.8 hPa | 0 mm | 1.34 m/s, 119° | 532 W/m² | - |
| 1777988922 | 17.78° C | 70% | 1011.7 hPa | 0 mm | 0.45 m/s, 359° | 523 W/m² | - |
* Rain latest hour (hover to see other rain measurements)
** Current wind speed in m/s (hover to see current wind gust speed)